createdAt,value
2016-06-13T00:00:20.981Z,22.68
2016-06-13T00:01:21.000Z,22.82
2016-06-13T00:02:21.003Z,22.62
2016-06-13T00:03:21.005Z,22.67
2016-06-13T00:04:21.008Z,22.76
2016-06-13T00:05:21.012Z,22.86
2016-06-13T00:06:21.672Z,22.8
2016-06-13T00:07:21.018Z,22.92
2016-06-13T00:08:22.130Z,22.86
2016-06-13T00:09:21.024Z,22.79
2016-06-13T00:10:21.027Z,22.9
2016-06-13T00:11:21.062Z,22.86
2016-06-13T00:12:21.049Z,22.79
2016-06-13T00:13:21.053Z,22.83
2016-06-13T00:14:21.039Z,22.85
2016-06-13T00:15:21.042Z,22.83
2016-06-13T00:16:21.077Z,22.82
2016-06-13T00:17:21.128Z,22.79
2016-06-13T00:18:21.709Z,22.82
2016-06-13T00:19:22.195Z,22.85
2016-06-13T00:20:20.918Z,22.83
2016-06-13T00:21:21.093Z,22.77
2016-06-13T00:22:21.080Z,22.77
2016-06-13T00:23:21.083Z,22.73
2016-06-13T00:24:21.087Z,22.75
2016-06-13T00:25:21.105Z,22.73
2016-06-13T00:26:21.780Z,22.67
2016-06-13T00:27:21.111Z,22.64
2016-06-13T00:28:21.754Z,22.77
2016-06-13T00:29:21.102Z,22.67
2016-06-13T00:30:21.120Z,22.65
2016-06-13T00:31:21.107Z,22.77
2016-06-13T00:32:21.127Z,22.75
2016-06-13T00:33:21.130Z,22.8
2016-06-13T00:34:21.133Z,22.8
2016-06-13T00:35:21.151Z,22.8
2016-06-13T00:36:21.139Z,22.82
2016-06-13T00:37:21.142Z,22.79
2016-06-13T00:38:21.145Z,22.73
2016-06-13T00:39:22.257Z,22.68
2016-06-13T00:40:21.167Z,22.73
2016-06-13T00:41:21.310Z,22.77
2016-06-13T00:42:21.172Z,22.68
2016-06-13T00:43:21.176Z,22.76
2016-06-13T00:44:21.179Z,22.7
2016-06-13T00:45:21.025Z,22.77
2016-06-13T00:46:21.185Z,22.68
2016-06-13T00:47:21.203Z,22.83
2016-06-13T00:48:21.191Z,22.8
2016-06-13T00:49:21.194Z,22.83
2016-06-13T00:50:22.322Z,22.94
2016-06-13T00:51:21.216Z,22.92
2016-06-13T00:52:21.250Z,22.83
2016-06-13T00:53:21.222Z,22.88
2016-06-13T00:54:21.226Z,22.8
2016-06-13T00:55:21.275Z,22.88
2016-06-13T00:56:22.216Z,22.82
2016-06-13T00:57:21.282Z,22.88
2016-06-13T00:58:21.238Z,22.83
2016-06-13T00:59:21.241Z,22.76
2016-06-13T01:00:21.088Z,22.75
2016-06-13T01:01:22.013Z,22.82
2016-06-13T01:02:21.250Z,22.77
2016-06-13T01:03:21.659Z,22.8
2016-06-13T01:04:21.256Z,22.82
2016-06-13T01:05:21.260Z,22.77
2016-06-13T01:06:21.262Z,22.91
2016-06-13T01:07:21.281Z,22.86
2016-06-13T01:08:21.285Z,22.8
2016-06-13T01:09:21.302Z,22.82
2016-06-13T01:10:21.290Z,22.83
2016-06-13T01:11:22.636Z,22.82
2016-06-13T01:12:22.172Z,22.82
2016-06-13T01:13:21.143Z,22.91
2016-06-13T01:14:21.911Z,22.86
2016-06-13T01:15:21.149Z,22.95
2016-06-13T01:16:21.230Z,22.85
2016-06-13T01:17:21.171Z,22.8
2016-06-13T01:18:21.236Z,22.82
2016-06-13T01:19:21.333Z,22.82
2016-06-13T01:20:21.321Z,22.82
2016-06-13T01:21:21.339Z,22.79
2016-06-13T01:22:21.343Z,22.76
2016-06-13T01:23:22.377Z,22.75
2016-06-13T01:24:21.348Z,22.77
2016-06-13T01:25:21.992Z,22.67
2016-06-13T01:26:21.792Z,22.7
2016-06-13T01:27:21.374Z,22.72
2016-06-13T01:28:21.377Z,22.75
2016-06-13T01:29:21.364Z,22.75
2016-06-13T01:30:21.367Z,22.83
2016-06-13T01:31:21.386Z,22.58
2016-06-13T01:32:21.733Z,22.54
2016-06-13T01:33:21.376Z,22.64
2016-06-13T01:34:21.396Z,22.54
2016-06-13T01:35:21.398Z,22.7
2016-06-13T01:36:22.432Z,22.75
2016-06-13T01:37:21.405Z,22.8
2016-06-13T01:38:21.423Z,22.77
2016-06-13T01:39:21.411Z,22.7
2016-06-13T01:40:21.413Z,22.76
2016-06-13T01:41:21.120Z,22.67
2016-06-13T01:42:21.420Z,22.82
2016-06-13T01:43:22.173Z,22.75
2016-06-13T01:44:21.426Z,22.82
2016-06-13T01:45:21.430Z,22.76
2016-06-13T01:46:21.432Z,22.82
2016-06-13T01:47:22.232Z,22.76
2016-06-13T01:48:21.453Z,22.79
2016-06-13T01:49:21.456Z,22.79
2016-06-13T01:50:21.460Z,22.82
2016-06-13T01:51:21.462Z,22.83
2016-06-13T01:52:21.465Z,22.77
2016-06-13T01:53:21.484Z,22.7
2016-06-13T01:54:21.910Z,22.73
2016-06-13T01:55:21.490Z,22.77
2016-06-13T01:56:21.869Z,22.83
2016-06-13T01:57:21.544Z,22.7
2016-06-13T01:58:22.469Z,22.62
2016-06-13T01:59:21.503Z,22.6
2016-06-13T02:00:21.553Z,22.79
2016-06-13T02:01:21.510Z,22.83
2016-06-13T02:02:21.512Z,22.82
2016-06-13T02:03:21.515Z,22.85
2016-06-13T02:04:21.519Z,22.85
2016-06-13T02:05:22.099Z,22.77
2016-06-13T02:06:21.541Z,22.65
2016-06-13T02:07:21.887Z,22.54
2016-06-13T02:08:21.530Z,22.62
2016-06-13T02:09:21.550Z,22.49
2016-06-13T02:10:21.553Z,22.52
2016-06-13T02:11:21.399Z,22.52
2016-06-13T02:12:21.574Z,22.65
2016-06-13T02:13:21.562Z,22.57
2016-06-13T02:14:21.565Z,22.62
2016-06-13T02:15:21.569Z,22.61
2016-06-13T02:16:22.524Z,22.67
2016-06-13T02:17:21.589Z,22.64
2016-06-13T02:18:22.280Z,22.72
2016-06-13T02:19:21.581Z,22.47
2016-06-13T02:20:21.584Z,22.64
2016-06-13T02:21:21.602Z,22.75
2016-06-13T02:22:21.590Z,22.65
2016-06-13T02:23:21.436Z,22.61
2016-06-13T02:24:21.611Z,22.6
2016-06-13T02:25:21.614Z,22.67
2016-06-13T02:26:22.133Z,22.6
2016-06-13T02:27:21.620Z,22.62
2016-06-13T02:28:21.623Z,22.65
2016-06-13T02:29:22.627Z,22.68
2016-06-13T02:30:21.629Z,22.62
2016-06-13T02:31:21.633Z,22.6
2016-06-13T02:32:21.636Z,22.58
2016-06-13T02:33:21.639Z,22.65
2016-06-13T02:34:21.641Z,22.6
2016-06-13T02:35:21.661Z,22.73
2016-06-13T02:36:21.664Z,22.68
2016-06-13T02:37:21.667Z,22.62
2016-06-13T02:38:21.670Z,22.62
2016-06-13T02:39:21.657Z,22.67
2016-06-13T02:40:22.395Z,22.67
2016-06-13T02:41:21.851Z,22.64
2016-06-13T02:42:22.182Z,22.68
2016-06-13T02:43:21.686Z,22.64
2016-06-13T02:44:21.689Z,22.6
2016-06-13T02:45:21.691Z,22.73
2016-06-13T02:46:21.711Z,22.67
2016-06-13T02:47:21.698Z,22.55
2016-06-13T02:48:21.717Z,22.62
2016-06-13T02:49:21.812Z,22.58
2016-06-13T02:50:21.722Z,22.62
2016-06-13T02:51:22.694Z,22.58
2016-06-13T02:52:21.729Z,22.64
2016-06-13T02:53:22.528Z,22.55
2016-06-13T02:54:21.735Z,22.55
2016-06-13T02:55:21.739Z,22.6
2016-06-13T02:56:21.756Z,22.6
2016-06-13T02:57:21.744Z,22.6
2016-06-13T02:58:21.794Z,22.52
2016-06-13T02:59:21.797Z,22.51
2016-06-13T03:00:22.519Z,22.55
2016-06-13T03:01:21.756Z,22.6
2016-06-13T03:02:22.181Z,22.57
2016-06-13T03:03:21.778Z,22.55
2016-06-13T03:04:21.766Z,22.57
2016-06-13T03:05:21.769Z,22.52
2016-06-13T03:06:21.772Z,22.46
2016-06-13T03:07:21.790Z,22.58
2016-06-13T03:08:21.779Z,22.61
2016-06-13T03:09:21.812Z,22.55
2016-06-13T03:10:21.799Z,22.61
2016-06-13T03:11:22.881Z,22.7
2016-06-13T03:12:21.650Z,22.7
2016-06-13T03:13:22.496Z,22.76
2016-06-13T03:14:21.812Z,22.73
2016-06-13T03:15:21.831Z,22.8
2016-06-13T03:16:21.833Z,22.79
2016-06-13T03:17:21.821Z,22.67
2016-06-13T03:18:21.824Z,22.76
2016-06-13T03:19:21.827Z,22.79
2016-06-13T03:20:21.846Z,22.64
2016-06-13T03:21:21.850Z,22.62
2016-06-13T03:22:22.477Z,22.73
2016-06-13T03:23:21.855Z,22.73
2016-06-13T03:24:22.983Z,22.77
2016-06-13T03:25:21.862Z,22.67
2016-06-13T03:26:22.708Z,22.76
2016-06-13T03:27:21.904Z,22.73
2016-06-13T03:28:21.933Z,22.6
2016-06-13T03:29:21.976Z,22.62
2016-06-13T03:30:22.035Z,22.68
2016-06-13T03:31:22.078Z,22.64
2016-06-13T03:32:22.124Z,22.57
2016-06-13T03:33:22.984Z,22.64
2016-06-13T03:34:22.142Z,22.6
2016-06-13T03:35:22.738Z,22.62
2016-06-13T03:36:22.177Z,22.67
2016-06-13T03:37:22.189Z,22.75
2016-06-13T03:38:22.197Z,22.77
2016-06-13T03:39:22.066Z,22.73
2016-06-13T03:40:22.074Z,22.7
2016-06-13T03:41:22.083Z,22.65
2016-06-13T03:42:22.229Z,22.55
2016-06-13T03:43:22.250Z,22.54
2016-06-13T03:44:22.349Z,22.6
2016-06-13T03:45:22.260Z,22.57
2016-06-13T03:46:23.437Z,22.51
2016-06-13T03:47:22.270Z,22.49
2016-06-13T03:48:22.274Z,22.6
2016-06-13T03:49:22.277Z,22.58
2016-06-13T03:50:22.281Z,22.46
2016-06-13T03:51:22.285Z,22.51
2016-06-13T03:52:22.289Z,22.57
2016-06-13T03:53:22.291Z,22.58
2016-06-13T03:54:22.295Z,22.58
2016-06-13T03:55:22.610Z,22.6
2016-06-13T03:56:22.395Z,22.64
2016-06-13T03:57:22.648Z,22.61
2016-06-13T03:58:22.323Z,22.68
2016-06-13T03:59:22.373Z,22.6
2016-06-13T04:00:22.376Z,22.62
2016-06-13T04:01:22.379Z,22.54
2016-06-13T04:02:22.335Z,22.64
2016-06-13T04:03:22.339Z,22.64
2016-06-13T04:04:22.341Z,22.55
2016-06-13T04:05:22.345Z,22.62
2016-06-13T04:06:23.050Z,22.52
2016-06-13T04:07:22.351Z,22.57
2016-06-13T04:08:22.369Z,22.61
2016-06-13T04:09:22.371Z,22.51
2016-06-13T04:10:22.375Z,22.6
2016-06-13T04:11:23.128Z,22.51
2016-06-13T04:12:22.381Z,22.61
2016-06-13T04:13:22.541Z,22.64
2016-06-13T04:14:22.387Z,22.7
2016-06-13T04:15:22.406Z,22.62
2016-06-13T04:16:22.394Z,22.61
2016-06-13T04:17:23.396Z,22.6
2016-06-13T04:18:22.415Z,22.58
2016-06-13T04:19:22.403Z,22.58
2016-06-13T04:20:22.266Z,22.73
2016-06-13T04:21:22.424Z,22.7
2016-06-13T04:22:22.427Z,22.67
2016-06-13T04:23:22.446Z,22.67
2016-06-13T04:24:22.278Z,22.72
2016-06-13T04:25:22.437Z,22.73
2016-06-13T04:26:22.283Z,22.67
2016-06-13T04:27:23.037Z,22.57
2016-06-13T04:28:23.087Z,22.58
2016-06-13T04:29:22.449Z,22.68
2016-06-13T04:30:22.764Z,22.65
2016-06-13T04:31:22.300Z,22.7
2016-06-13T04:32:22.317Z,22.65
2016-06-13T04:33:22.477Z,22.61
2016-06-13T04:34:22.480Z,22.67
2016-06-13T04:35:22.483Z,22.68
2016-06-13T04:36:22.487Z,22.6
2016-06-13T04:37:22.504Z,22.54
2016-06-13T04:38:22.493Z,22.75
2016-06-13T04:39:23.433Z,22.58
2016-06-13T04:40:22.499Z,22.57
2016-06-13T04:41:23.048Z,22.58
2016-06-13T04:42:22.520Z,22.62
2016-06-13T04:43:22.508Z,22.47
2016-06-13T04:44:22.527Z,22.55
2016-06-13T04:45:22.529Z,22.61
2016-06-13T04:46:22.532Z,22.51
2016-06-13T04:47:22.536Z,22.49
2016-06-13T04:48:22.538Z,22.6
2016-06-13T04:49:22.541Z,22.45
2016-06-13T04:50:22.388Z,22.58
2016-06-13T04:51:22.548Z,22.51
2016-06-13T04:52:23.692Z,22.58
2016-06-13T04:53:22.554Z,22.79
2016-06-13T04:54:22.573Z,22.68
2016-06-13T04:55:22.560Z,22.67
2016-06-13T04:56:22.563Z,22.68
2016-06-13T04:57:22.692Z,22.65
2016-06-13T04:58:22.586Z,22.72
2016-06-13T04:59:22.635Z,22.55
2016-06-13T05:00:22.435Z,22.58
2016-06-13T05:01:22.704Z,22.64
2016-06-13T05:02:22.660Z,22.55
2016-06-13T05:03:23.351Z,22.61
2016-06-13T05:04:22.604Z,22.68
2016-06-13T05:05:22.637Z,22.7
2016-06-13T05:06:22.610Z,22.79
2016-06-13T05:07:22.613Z,22.77
2016-06-13T05:08:22.631Z,22.72
2016-06-13T05:09:22.634Z,22.73
2016-06-13T05:10:22.637Z,22.86
2016-06-13T05:11:22.640Z,22.76
2016-06-13T05:12:22.690Z,22.82
2016-06-13T05:13:22.662Z,22.64
2016-06-13T05:14:23.604Z,22.72
2016-06-13T05:15:22.497Z,22.62
2016-06-13T05:16:22.655Z,22.58
2016-06-13T05:17:22.675Z,22.58
2016-06-13T05:18:22.662Z,22.54
2016-06-13T05:19:22.681Z,22.72
2016-06-13T05:20:22.668Z,22.68
2016-06-13T05:21:22.687Z,22.72
2016-06-13T05:22:22.690Z,22.82
2016-06-13T05:23:22.896Z,22.75
2016-06-13T05:24:22.696Z,22.76
2016-06-13T05:25:22.715Z,22.91
2016-06-13T05:26:22.703Z,22.88
2016-06-13T05:27:22.706Z,22.9
2016-06-13T05:28:22.724Z,22.92
2016-06-13T05:29:22.727Z,23
2016-06-13T05:30:22.731Z,22.97
2016-06-13T05:31:22.577Z,22.98
2016-06-13T05:32:22.752Z,22.95
2016-06-13T05:33:22.740Z,22.92
2016-06-13T05:34:23.602Z,22.83
2016-06-13T05:35:22.746Z,22.8
2016-06-13T05:36:23.296Z,22.83
2016-06-13T05:37:22.767Z,22.85
2016-06-13T05:38:22.770Z,22.83
2016-06-13T05:39:22.773Z,22.88
2016-06-13T05:40:22.776Z,22.9
2016-06-13T05:41:22.779Z,22.76
2016-06-13T05:42:22.877Z,22.82
2016-06-13T05:43:22.786Z,22.76
2016-06-13T05:44:22.789Z,22.77
2016-06-13T05:45:23.933Z,22.85
2016-06-13T05:46:22.811Z,22.91
2016-06-13T05:47:23.783Z,22.91
2016-06-13T05:48:22.817Z,22.82
2016-06-13T05:49:22.820Z,22.82
2016-06-13T05:50:22.823Z,22.85
2016-06-13T05:51:22.826Z,22.86
2016-06-13T05:52:22.829Z,22.88
2016-06-13T05:53:22.848Z,22.94
2016-06-13T05:54:22.852Z,23.01
2016-06-13T05:55:22.855Z,23
2016-06-13T05:56:23.810Z,22.94
2016-06-13T05:57:22.720Z,22.86
2016-06-13T05:58:23.598Z,22.85
2016-06-13T05:59:22.882Z,22.86
2016-06-13T06:00:22.870Z,22.82
2016-06-13T06:01:22.918Z,22.82
2016-06-13T06:02:22.938Z,22.73
2016-06-13T06:03:22.941Z,22.8
2016-06-13T06:04:22.897Z,22.88
2016-06-13T06:05:22.744Z,22.91
2016-06-13T06:06:22.889Z,22.94
2016-06-13T06:07:23.000Z,23.02
2016-06-13T06:08:22.753Z,22.85
2016-06-13T06:09:24.084Z,22.95
2016-06-13T06:10:23.869Z,22.91
2016-06-13T06:11:22.935Z,22.92
2016-06-13T06:12:23.343Z,22.91
2016-06-13T06:13:22.785Z,22.9
2016-06-13T06:14:22.959Z,22.82
2016-06-13T06:15:22.947Z,22.73
2016-06-13T06:16:22.950Z,22.79
2016-06-13T06:17:22.953Z,22.73
2016-06-13T06:18:23.268Z,22.7
2016-06-13T06:19:22.974Z,22.79
2016-06-13T06:20:22.962Z,22.94
2016-06-13T06:21:22.980Z,22.86
2016-06-13T06:22:22.968Z,22.8
2016-06-13T06:23:22.987Z,22.79
2016-06-13T06:24:22.990Z,22.7
2016-06-13T06:25:22.992Z,22.65
2016-06-13T06:26:22.996Z,22.6
2016-06-13T06:27:22.859Z,22.6
2016-06-13T06:28:23.002Z,22.76
2016-06-13T06:29:23.849Z,22.7
2016-06-13T06:30:23.008Z,22.77
2016-06-13T06:31:22.871Z,22.79
2016-06-13T06:32:23.030Z,22.83
2016-06-13T06:33:23.033Z,22.82
2016-06-13T06:34:23.021Z,22.82
2016-06-13T06:35:23.071Z,22.77
2016-06-13T06:36:23.043Z,22.83
2016-06-13T06:37:23.045Z,22.79
2016-06-13T06:38:23.048Z,22.75
2016-06-13T06:39:23.068Z,22.77
2016-06-13T06:40:24.164Z,22.64
2016-06-13T06:41:23.058Z,22.72
2016-06-13T06:42:23.842Z,22.73
2016-06-13T06:43:23.080Z,22.73
2016-06-13T06:44:23.098Z,22.79
2016-06-13T06:45:23.086Z,22.72
2016-06-13T06:46:23.089Z,22.73
2016-06-13T06:47:23.093Z,22.67
2016-06-13T06:48:23.095Z,22.7
2016-06-13T06:49:23.099Z,22.61
2016-06-13T06:50:23.101Z,22.67
2016-06-13T06:51:23.792Z,22.73
2016-06-13T06:52:23.123Z,22.73
2016-06-13T06:53:23.470Z,22.58
2016-06-13T06:54:23.129Z,22.65
2016-06-13T06:55:23.131Z,22.76
2016-06-13T06:56:23.135Z,22.8
2016-06-13T06:57:23.888Z,22.54
2016-06-13T06:58:23.141Z,22.64
2016-06-13T06:59:23.144Z,22.64
2016-06-13T07:00:23.210Z,22.65
2016-06-13T07:01:23.167Z,22.65
2016-06-13T07:02:24.231Z,22.76
2016-06-13T07:03:23.219Z,22.73
2016-06-13T07:04:23.926Z,22.72
2016-06-13T07:05:23.179Z,22.75
2016-06-13T07:06:23.182Z,22.7
2016-06-13T07:07:23.029Z,22.72
2016-06-13T07:08:23.188Z,22.8
2016-06-13T07:09:23.207Z,22.77
2016-06-13T07:10:23.038Z,22.83
2016-06-13T07:11:23.556Z,22.79
2016-06-13T07:12:23.216Z,22.7
2016-06-13T07:13:23.219Z,22.79
2016-06-13T07:14:23.223Z,22.73
2016-06-13T07:15:24.178Z,22.73
2016-06-13T07:16:23.229Z,22.72
2016-06-13T07:17:23.232Z,22.65
2016-06-13T07:18:23.235Z,22.54
2016-06-13T07:19:23.238Z,22.54
2016-06-13T07:20:23.255Z,22.49
2016-06-13T07:21:23.259Z,22.46
2016-06-13T07:22:23.997Z,22.47
2016-06-13T07:23:23.265Z,22.51
2016-06-13T07:24:23.268Z,22.58
2016-06-13T07:25:23.272Z,22.52
2016-06-13T07:26:23.993Z,22.58
2016-06-13T07:27:23.293Z,22.55
2016-06-13T07:28:23.672Z,22.4
2016-06-13T07:29:23.128Z,22.54
2016-06-13T07:30:23.333Z,22.57
2016-06-13T07:31:23.305Z,22.61
2016-06-13T07:32:23.136Z,22.6
2016-06-13T07:33:24.421Z,22.47
2016-06-13T07:34:23.298Z,22.45
2016-06-13T07:35:23.505Z,22.54
2016-06-13T07:36:23.305Z,22.55
2016-06-13T07:37:23.324Z,22.43
2016-06-13T07:38:23.311Z,22.49
2016-06-13T07:39:23.330Z,22.37
2016-06-13T07:40:23.333Z,22.45
2016-06-13T07:41:23.337Z,22.52
2016-06-13T07:42:23.198Z,22.45
2016-06-13T07:43:23.374Z,22.43
2016-06-13T07:44:24.190Z,22.47
2016-06-13T07:45:23.348Z,22.46
2016-06-13T07:46:24.007Z,22.58
2016-06-13T07:47:23.355Z,22.51
2016-06-13T07:48:23.358Z,22.57
2016-06-13T07:49:23.361Z,22.58
2016-06-13T07:50:23.364Z,22.58
2016-06-13T07:51:23.382Z,22.6
2016-06-13T07:52:23.370Z,22.6
2016-06-13T07:53:23.389Z,22.49
2016-06-13T07:54:23.391Z,22.47
2016-06-13T07:55:23.394Z,22.52
2016-06-13T07:56:23.398Z,22.4
2016-06-13T07:57:25.198Z,22.4
2016-06-13T07:58:23.419Z,22.45
2016-06-13T07:59:23.657Z,22.47
2016-06-13T08:00:23.410Z,22.39
2016-06-13T08:01:23.429Z,22.39
2016-06-13T08:02:23.416Z,22.39
2016-06-13T08:03:23.513Z,22.58
2016-06-13T08:04:23.422Z,22.6
2016-06-13T08:05:23.441Z,22.51
2016-06-13T08:06:23.428Z,22.42
2016-06-13T08:07:23.275Z,22.49
2016-06-13T08:08:24.309Z,22.67
2016-06-13T08:09:23.454Z,22.76
2016-06-13T08:10:24.050Z,22.68
2016-06-13T08:11:23.459Z,22.8
2016-06-13T08:12:23.791Z,22.76
2016-06-13T08:13:23.482Z,22.79
2016-06-13T08:14:23.468Z,22.8
2016-06-13T08:15:23.503Z,22.76
2016-06-13T08:16:23.474Z,22.75
2016-06-13T08:17:23.978Z,22.68
2016-06-13T08:18:23.481Z,22.68
2016-06-13T08:19:23.687Z,22.77
2016-06-13T08:20:23.503Z,22.72
2016-06-13T08:21:24.616Z,22.76
2016-06-13T08:22:23.509Z,22.6
2016-06-13T08:23:23.513Z,22.7
2016-06-13T08:24:23.515Z,22.79
2016-06-13T08:25:23.518Z,22.73
2016-06-13T08:26:23.381Z,22.9
2016-06-13T08:27:23.947Z,22.98
2016-06-13T08:28:25.152Z,22.98
2016-06-13T08:29:23.546Z,22.95
2016-06-13T08:30:24.190Z,22.94
2016-06-13T08:31:23.552Z,22.8
2016-06-13T08:32:23.555Z,22.94
2016-06-13T08:33:23.558Z,22.82
2016-06-13T08:34:23.561Z,22.75
2016-06-13T08:35:23.611Z,22.77
2016-06-13T08:36:23.568Z,22.88
2016-06-13T08:37:23.587Z,22.95
2016-06-13T08:38:23.590Z,22.95
2016-06-13T08:39:24.186Z,22.98
2016-06-13T08:40:23.440Z,22.92
2016-06-13T08:41:24.740Z,22.97
2016-06-13T08:42:24.398Z,22.91
2016-06-13T08:43:23.480Z,22.92
2016-06-13T08:44:23.608Z,22.95
2016-06-13T08:45:23.642Z,22.97
2016-06-13T08:46:23.645Z,22.86
2016-06-13T08:47:23.633Z,22.9
2016-06-13T08:48:23.636Z,22.98
2016-06-13T08:49:23.640Z,22.88
2016-06-13T08:50:24.610Z,22.92
2016-06-13T08:51:23.660Z,22.82
2016-06-13T08:52:24.602Z,22.77
2016-06-13T08:53:23.667Z,22.98
2016-06-13T08:54:23.685Z,22.97
2016-06-13T08:55:23.673Z,22.92
2016-06-13T08:56:23.676Z,22.88
2016-06-13T08:57:23.679Z,22.92
2016-06-13T08:58:23.698Z,22.9
2016-06-13T08:59:23.701Z,22.97
2016-06-13T09:00:23.704Z,22.9
2016-06-13T09:01:23.864Z,22.88
2016-06-13T09:02:23.757Z,22.83
2016-06-13T09:03:24.900Z,22.98
2016-06-13T09:04:23.731Z,23
2016-06-13T09:05:23.720Z,23.04
2016-06-13T09:06:23.784Z,23
2016-06-13T09:07:23.741Z,23
2016-06-13T09:08:23.744Z,22.83
2016-06-13T09:09:23.747Z,23.02
2016-06-13T09:10:23.750Z,23.1
2016-06-13T09:11:23.752Z,23.13
2016-06-13T09:12:24.460Z,23.22
2016-06-13T09:13:23.791Z,23.16
2016-06-13T09:14:23.778Z,23.04
2016-06-13T09:15:23.781Z,23.2
2016-06-13T09:16:23.785Z,23.12
2016-06-13T09:17:23.787Z,23.28
2016-06-13T09:18:23.790Z,23.19
2016-06-13T09:19:23.638Z,23.31
2016-06-13T09:20:23.813Z,23.42
2016-06-13T09:21:23.799Z,23.35
2016-06-13T09:22:23.819Z,23.31
2016-06-13T09:23:24.822Z,23.31
2016-06-13T09:24:23.824Z,23.16
2016-06-13T09:25:23.828Z,23.23
2016-06-13T09:26:23.831Z,23.19
2016-06-13T09:27:23.834Z,23.04
2016-06-13T09:28:23.712Z,23.17
2016-06-13T09:29:23.856Z,23.16
2016-06-13T09:30:23.858Z,23.19
2016-06-13T09:31:23.861Z,23.22
2016-06-13T09:32:23.865Z,23.43
2016-06-13T09:33:23.868Z,23.46
2016-06-13T09:34:24.809Z,23.53
2016-06-13T09:35:23.890Z,23.53
2016-06-13T09:36:24.486Z,23.46
2016-06-13T09:37:23.896Z,23.43
2016-06-13T09:38:23.899Z,23.46
2016-06-13T09:39:23.902Z,23.46
2016-06-13T09:40:23.921Z,23.4
2016-06-13T09:41:23.924Z,23.47
2016-06-13T09:42:23.927Z,23.5
2016-06-13T09:43:24.337Z,23.36
2016-06-13T09:44:23.949Z,23.5
2016-06-13T09:45:25.154Z,23.42
2016-06-13T09:46:23.782Z,23.42
2016-06-13T09:47:24.693Z,23.43
2016-06-13T09:48:23.977Z,23.28
2016-06-13T09:49:23.963Z,23.32
2016-06-13T09:50:23.811Z,23.35
2016-06-13T09:51:23.970Z,23.31
2016-06-13T09:52:23.989Z,23.31
2016-06-13T09:53:24.007Z,23.28
2016-06-13T09:54:23.995Z,23.17
2016-06-13T09:55:23.999Z,23.17
2016-06-13T09:56:24.001Z,23.22
2016-06-13T09:57:24.004Z,23.12
2016-06-13T09:58:24.461Z,23.1
2016-06-13T09:59:24.025Z,23.25
2016-06-13T10:00:24.028Z,23.25
2016-06-13T10:01:24.031Z,23.31
2016-06-13T10:02:23.879Z,23.23
2016-06-13T10:03:24.148Z,23.19
2016-06-13T10:04:24.072Z,23.27
2016-06-13T10:05:24.060Z,23.1
2016-06-13T10:06:24.079Z,23.01
2016-06-13T10:07:24.129Z,23.17
2016-06-13T10:08:24.085Z,23.1
2016-06-13T10:09:24.745Z,23.1
2016-06-13T10:10:24.091Z,23.09
2016-06-13T10:11:24.094Z,23.05
2016-06-13T10:12:24.160Z,23.01
2016-06-13T10:13:24.101Z,22.98
2016-06-13T10:14:24.103Z,22.98
2016-06-13T10:15:24.106Z,23
2016-06-13T10:16:24.110Z,23
2016-06-13T10:17:24.128Z,23.13
2016-06-13T10:18:24.584Z,23.17
2016-06-13T10:19:24.149Z,23.04
2016-06-13T10:20:24.137Z,22.98
2016-06-13T10:21:24.140Z,22.98
2016-06-13T10:22:24.143Z,22.86
2016-06-13T10:23:24.162Z,22.91
2016-06-13T10:24:24.182Z,22.97
2016-06-13T10:25:24.168Z,23.15
2016-06-13T10:26:24.187Z,23.22
2016-06-13T10:27:24.174Z,23.02
2016-06-13T10:28:24.178Z,23
2016-06-13T10:29:24.181Z,23.02
2016-06-13T10:30:24.183Z,22.97
2016-06-13T10:31:25.249Z,23.07
2016-06-13T10:32:24.206Z,23.09
2016-06-13T10:33:24.209Z,23.09
2016-06-13T10:34:24.212Z,22.98
2016-06-13T10:35:24.216Z,23.04
2016-06-13T10:36:24.077Z,23.07
2016-06-13T10:37:24.236Z,22.98
2016-06-13T10:38:24.239Z,23.01
2016-06-13T10:39:24.242Z,22.97
2016-06-13T10:40:24.308Z,23.01
2016-06-13T10:41:24.249Z,23
2016-06-13T10:42:24.862Z,22.88
2016-06-13T10:43:24.271Z,22.82
2016-06-13T10:44:24.273Z,22.94
2016-06-13T10:45:24.277Z,23.01
2016-06-13T10:46:24.264Z,22.97
2016-06-13T10:47:24.283Z,22.9
2016-06-13T10:48:24.286Z,22.86
2016-06-13T10:49:24.289Z,22.86
2016-06-13T10:50:24.292Z,22.88
2016-06-13T10:51:24.295Z,22.91
2016-06-13T10:52:24.298Z,22.88
2016-06-13T10:53:25.160Z,22.94
2016-06-13T10:54:24.304Z,22.9
2016-06-13T10:55:24.323Z,22.94
2016-06-13T10:56:24.311Z,22.9
2016-06-13T10:57:24.329Z,23.04
2016-06-13T10:58:24.676Z,22.98
2016-06-13T10:59:24.335Z,23.01
2016-06-13T11:00:24.338Z,23.01
2016-06-13T11:01:24.341Z,23
2016-06-13T11:02:24.344Z,23.02
2016-06-13T11:03:24.410Z,23.17
2016-06-13T11:04:24.913Z,23.15
2016-06-13T11:05:24.369Z,23.04
2016-06-13T11:06:24.389Z,23.19
2016-06-13T11:07:24.376Z,23.2
2016-06-13T11:08:24.442Z,23.13
2016-06-13T11:09:24.382Z,23.12
2016-06-13T11:10:24.401Z,23.17
2016-06-13T11:11:24.404Z,23.04
2016-06-13T11:12:24.454Z,23
2016-06-13T11:13:24.535Z,23.15
2016-06-13T11:14:24.100Z,23.15
2016-06-13T11:15:24.978Z,23.16
2016-06-13T11:16:24.419Z,23.19
2016-06-13T11:17:25.390Z,23.13
2016-06-13T11:18:24.425Z,23.13
2016-06-13T11:19:24.443Z,23.2
2016-06-13T11:20:24.307Z,23.13
2016-06-13T11:21:24.450Z,23.12
2016-06-13T11:22:24.453Z,23.17
2016-06-13T11:23:24.455Z,23.19
2016-06-13T11:24:24.459Z,23.22
2016-06-13T11:25:24.478Z,23.42
2016-06-13T11:26:25.372Z,23.39
2016-06-13T11:27:24.328Z,23.27
2016-06-13T11:28:25.893Z,23.35
2016-06-13T11:29:24.490Z,23.2
2016-06-13T11:30:30.149Z,23.17
2016-06-13T11:31:24.496Z,23.16
2016-06-13T11:32:24.515Z,23.35
2016-06-13T11:33:24.346Z,23.32
2016-06-13T11:34:24.506Z,23.38
2016-06-13T11:35:24.368Z,23.42
2016-06-13T11:36:24.528Z,23.48
2016-06-13T11:37:25.031Z,23.51
2016-06-13T11:38:24.534Z,23.55
2016-06-13T11:39:25.443Z,23.42
2016-06-13T11:40:24.555Z,23.55
2016-06-13T11:41:24.808Z,23.53
2016-06-13T11:42:24.546Z,23.63
2016-06-13T11:43:24.845Z,23.53
2016-06-13T11:44:24.568Z,23.42
2016-06-13T11:45:24.571Z,23.53
2016-06-13T11:46:24.433Z,23.54
2016-06-13T11:47:24.592Z,23.48
2016-06-13T11:48:24.970Z,23.68
2016-06-13T11:49:24.598Z,23.6
2016-06-13T11:50:24.601Z,23.78
2016-06-13T11:51:24.589Z,23.68
2016-06-13T11:52:25.717Z,23.63
2016-06-13T11:53:24.611Z,23.65
2016-06-13T11:54:24.614Z,23.57
2016-06-13T11:55:24.632Z,23.69
2016-06-13T11:56:24.479Z,23.61
2016-06-13T11:57:24.639Z,23.51
2016-06-13T11:58:24.501Z,23.58
2016-06-13T11:59:25.191Z,23.6
2016-06-13T12:00:24.663Z,23.6
2016-06-13T12:01:24.808Z,23.68
2016-06-13T12:02:24.670Z,23.75
2016-06-13T12:03:25.344Z,23.57
2016-06-13T12:04:24.520Z,23.72
2016-06-13T12:05:24.709Z,23.73
2016-06-13T12:06:24.697Z,23.8
2016-06-13T12:07:24.701Z,23.84
2016-06-13T12:08:24.704Z,23.76
2016-06-13T12:09:24.754Z,23.84
2016-06-13T12:10:24.710Z,23.84
2016-06-13T12:11:24.728Z,23.87
2016-06-13T12:12:24.731Z,23.84
2016-06-13T12:13:25.125Z,23.72
2016-06-13T12:14:25.815Z,23.53
2016-06-13T12:15:24.866Z,23.61
2016-06-13T12:16:24.775Z,23.76
2016-06-13T12:17:24.746Z,23.75
2016-06-13T12:18:24.766Z,23.78
2016-06-13T12:19:24.753Z,23.85
2016-06-13T12:20:24.803Z,23.72
2016-06-13T12:21:24.947Z,23.79
2016-06-13T12:22:24.778Z,23.68
2016-06-13T12:23:24.781Z,23.66
2016-06-13T12:24:24.784Z,23.58
2016-06-13T12:25:25.304Z,23.69
2016-06-13T12:26:24.790Z,23.73
2016-06-13T12:27:24.809Z,23.69
2016-06-13T12:28:25.359Z,23.68
2016-06-13T12:29:25.316Z,23.69
2016-06-13T12:30:24.662Z,23.83
2016-06-13T12:31:24.821Z,23.87
2016-06-13T12:32:24.825Z,23.75
2016-06-13T12:33:24.874Z,23.85
2016-06-13T12:34:24.918Z,23.78
2016-06-13T12:35:24.962Z,23.84
2016-06-13T12:36:25.896Z,23.87
2016-06-13T12:37:25.049Z,23.8
2016-06-13T12:38:25.072Z,23.9
2016-06-13T12:39:25.090Z,23.79
2016-06-13T12:40:25.108Z,23.91
2016-06-13T12:41:25.142Z,23.91
2016-06-13T12:42:25.160Z,23.8
2016-06-13T12:43:25.795Z,23.79
2016-06-13T12:44:25.037Z,23.93
2016-06-13T12:45:25.030Z,24
2016-06-13T12:46:25.194Z,24.03
2016-06-13T12:47:26.311Z,23.98
2016-06-13T12:48:25.239Z,24.06
2016-06-13T12:49:25.228Z,24.03
2016-06-13T12:50:25.233Z,24
2016-06-13T12:51:25.254Z,24.02
2016-06-13T12:52:25.243Z,23.93
2016-06-13T12:53:25.263Z,24.06
2016-06-13T12:54:25.267Z,23.97
2016-06-13T12:55:25.271Z,23.94
2016-06-13T12:56:25.290Z,24
2016-06-13T12:57:25.294Z,24